sensor_id;sensor_type;location;lat;lon;timestamp;pressure;altitude;pressure_sealevel;temperature;humidity
69402;BME280;56589;51.992;5.924;2022-08-19T00:01:57;100811.75;;;18.95;70.08
69402;BME280;56589;51.992;5.924;2022-08-19T00:04:26;100808.22;;;18.95;69.96
69402;BME280;56589;51.992;5.924;2022-08-19T00:06:54;100810.53;;;18.90;70.14
69402;BME280;56589;51.992;5.924;2022-08-19T00:09:21;100808.31;;;18.85;70.47
69402;BME280;56589;51.992;5.924;2022-08-19T00:11:49;100808.75;;;18.80;70.29
69402;BME280;56589;51.992;5.924;2022-08-19T00:14:18;100821.22;;;18.80;70.46
69402;BME280;56589;51.992;5.924;2022-08-19T00:16:46;100820.69;;;18.76;70.24
69402;BME280;56589;51.992;5.924;2022-08-19T00:19:14;100818.34;;;18.73;70.38
69402;BME280;56589;51.992;5.924;2022-08-19T00:21:40;100818.63;;;18.70;70.74
69402;BME280;56589;51.992;5.924;2022-08-19T00:24:08;100817.09;;;18.68;70.71
69402;BME280;56589;51.992;5.924;2022-08-19T00:26:36;100818.38;;;18.64;70.84
69402;BME280;56589;51.992;5.924;2022-08-19T00:29:03;100811.56;;;18.61;70.95
69402;BME280;56589;51.992;5.924;2022-08-19T00:31:34;100804.81;;;18.57;71.21
69402;BME280;56589;51.992;5.924;2022-08-19T00:34:01;100803.59;;;18.51;71.42
69402;BME280;56589;51.992;5.924;2022-08-19T00:36:27;100793.44;;;18.47;70.90
69402;BME280;56589;51.992;5.924;2022-08-19T00:38:53;100794.03;;;18.41;71.42
69402;BME280;56589;51.992;5.924;2022-08-19T00:41:20;100797.28;;;18.35;71.31
69402;BME280;56589;51.992;5.924;2022-08-19T00:44:00;100801.34;;;18.29;71.86
69402;BME280;56589;51.992;5.924;2022-08-19T00:46:29;100801.63;;;18.26;71.55
69402;BME280;56589;51.992;5.924;2022-08-19T00:48:57;100809.75;;;18.24;71.57
69402;BME280;56589;51.992;5.924;2022-08-19T00:51:26;100808.94;;;18.24;71.99
69402;BME280;56589;51.992;5.924;2022-08-19T00:53:55;100813.56;;;18.22;72.14
69402;BME280;56589;51.992;5.924;2022-08-19T00:56:24;100818.06;;;18.21;71.87
69402;BME280;56589;51.992;5.924;2022-08-19T00:58:51;100819.00;;;18.20;72.08
69402;BME280;56589;51.992;5.924;2022-08-19T01:01:17;100815.66;;;18.18;71.94
69402;BME280;56589;51.992;5.924;2022-08-19T01:03:46;100812.19;;;18.18;72.16
69402;BME280;56589;51.992;5.924;2022-08-19T01:06:11;100816.66;;;18.17;71.95
69402;BME280;56589;51.992;5.924;2022-08-19T01:08:37;100815.97;;;18.15;71.97
69402;BME280;56589;51.992;5.924;2022-08-19T01:11:04;100811.94;;;18.11;72.05
69402;BME280;56589;51.992;5.924;2022-08-19T01:13:32;100818.34;;;18.09;72.07
69402;BME280;56589;51.992;5.924;2022-08-19T01:16:01;100814.63;;;18.01;72.30
69402;BME280;56589;51.992;5.924;2022-08-19T01:18:31;100810.59;;;17.97;72.67
69402;BME280;56589;51.992;5.924;2022-08-19T01:21:07;100814.34;;;17.95;72.50
69402;BME280;56589;51.992;5.924;2022-08-19T01:23:40;100824.16;;;17.94;72.26
69402;BME280;56589;51.992;5.924;2022-08-19T01:26:06;100818.31;;;17.91;72.55
69402;BME280;56589;51.992;5.924;2022-08-19T01:28:31;100819.16;;;17.91;72.28
69402;BME280;56589;51.992;5.924;2022-08-19T01:30:57;100819.16;;;17.91;72.53
69402;BME280;56589;51.992;5.924;2022-08-19T01:33:23;100818.44;;;17.89;72.52
69402;BME280;56589;51.992;5.924;2022-08-19T01:35:49;100814.94;;;17.89;72.85
69402;BME280;56589;51.992;5.924;2022-08-19T01:38:21;100821.25;;;17.88;72.90
69402;BME280;56589;51.992;5.924;2022-08-19T01:40:51;100815.09;;;17.87;72.80
69402;BME280;56589;51.992;5.924;2022-08-19T01:43:17;100813.28;;;17.88;72.75
69402;BME280;56589;51.992;5.924;2022-08-19T01:45:45;100801.66;;;17.89;72.71
69402;BME280;56589;51.992;5.924;2022-08-19T01:48:11;100810.47;;;17.89;72.91
69402;BME280;56589;51.992;5.924;2022-08-19T01:50:37;100816.34;;;17.93;73.01
69402;BME280;56589;51.992;5.924;2022-08-19T01:53:06;100826.53;;;17.97;72.95
69402;BME280;56589;51.992;5.924;2022-08-19T01:55:36;100824.41;;;18.01;72.95
69402;BME280;56589;51.992;5.924;2022-08-19T01:58:11;100823.56;;;18.00;73.23
69402;BME280;56589;51.992;5.924;2022-08-19T02:00:43;100817.16;;;18.03;72.68
69402;BME280;56589;51.992;5.924;2022-08-19T02:03:09;100810.00;;;18.03;72.64
69402;BME280;56589;51.992;5.924;2022-08-19T02:05:35;100821.59;;;18.02;72.76
69402;BME280;56589;51.992;5.924;2022-08-19T02:08:00;100821.59;;;18.02;72.96
69402;BME280;56589;51.992;5.924;2022-08-19T02:10:26;100830.28;;;18.04;72.59
69402;BME280;56589;51.992;5.924;2022-08-19T02:12:52;100833.63;;;18.06;72.71
69402;BME280;56589;51.992;5.924;2022-08-19T02:15:23;100838.78;;;18.08;73.03
69402;BME280;56589;51.992;5.924;2022-08-19T02:17:49;100832.19;;;18.12;72.40
69402;BME280;56589;51.992;5.924;2022-08-19T02:20:15;100821.97;;;18.17;72.40
69402;BME280;56589;51.992;5.924;2022-08-19T02:22:42;100827.13;;;18.19;72.78
69402;BME280;56589;51.992;5.924;2022-08-19T02:25:09;100820.84;;;18.20;72.16
69402;BME280;56589;51.992;5.924;2022-08-19T02:27:36;100821.28;;;18.15;72.03
69402;BME280;56589;51.992;5.924;2022-08-19T02:30:04;100828.88;;;18.10;72.25
69402;BME280;56589;51.992;5.924;2022-08-19T02:32:33;100839.09;;;18.05;72.52
69402;BME280;56589;51.992;5.924;2022-08-19T02:34:59;100835.88;;;18.01;72.62
69402;BME280;56589;51.992;5.924;2022-08-19T02:37:25;100834.50;;;17.97;72.12
69402;BME280;56589;51.992;5.924;2022-08-19T02:39:51;100833.94;;;17.94;72.42
69402;BME280;56589;51.992;5.924;2022-08-19T02:42:20;100825.13;;;17.93;72.43
69402;BME280;56589;51.992;5.924;2022-08-19T02:44:45;100825.41;;;17.90;72.44
69402;BME280;56589;51.992;5.924;2022-08-19T02:47:11;100829.06;;;17.89;72.45
69402;BME280;56589;51.992;5.924;2022-08-19T02:49:39;100825.03;;;17.85;72.27
69402;BME280;56589;51.992;5.924;2022-08-19T02:52:05;100820.81;;;17.83;72.82
69402;BME280;56589;51.992;5.924;2022-08-19T02:54:31;100824.47;;;17.82;72.03
69402;BME280;56589;51.992;5.924;2022-08-19T02:56:57;100826.44;;;17.79;72.26
69402;BME280;56589;51.992;5.924;2022-08-19T02:59:23;100825.72;;;17.77;72.58
69402;BME280;56589;51.992;5.924;2022-08-19T03:01:49;100825.88;;;17.76;72.18
69402;BME280;56589;51.992;5.924;2022-08-19T03:04:15;100831.19;;;17.76;72.25
69402;BME280;56589;51.992;5.924;2022-08-19T03:06:45;100825.06;;;17.75;72.77
69402;BME280;56589;51.992;5.924;2022-08-19T03:09:12;100825.06;;;17.75;72.35
69402;BME280;56589;51.992;5.924;2022-08-19T03:11:39;100825.06;;;17.75;72.36
69402;BME280;56589;51.992;5.924;2022-08-19T03:14:07;100828.00;;;17.72;71.96
69402;BME280;56589;51.992;5.924;2022-08-19T03:16:40;100821.97;;;17.70;72.04
69402;BME280;56589;51.992;5.924;2022-08-19T03:19:07;100825.03;;;17.66;72.12
69402;BME280;56589;51.992;5.924;2022-08-19T03:21:34;100832.16;;;17.65;72.38
69402;BME280;56589;51.992;5.924;2022-08-19T03:24:05;100827.31;;;17.61;72.45
69402;BME280;56589;51.992;5.924;2022-08-19T03:26:33;100830.38;;;17.56;72.42
69402;BME280;56589;51.992;5.924;2022-08-19T03:29:01;100826.06;;;17.45;72.30
69402;BME280;56589;51.992;5.924;2022-08-19T03:31:28;100833.47;;;17.42;72.95
69402;BME280;56589;51.992;5.924;2022-08-19T03:33:54;100829.13;;;17.41;72.91
69402;BME280;56589;51.992;5.924;2022-08-19T03:36:22;100831.09;;;17.39;72.94
69402;BME280;56589;51.992;5.924;2022-08-19T03:38:51;100827.59;;;17.38;72.62
69402;BME280;56589;51.992;5.924;2022-08-19T03:41:22;100829.56;;;17.36;72.74
69402;BME280;56589;51.992;5.924;2022-08-19T03:43:50;100829.16;;;17.31;72.64
69402;BME280;56589;51.992;5.924;2022-08-19T03:46:21;100827.59;;;17.29;72.33
69402;BME280;56589;51.992;5.924;2022-08-19T03:48:49;100824.25;;;17.26;72.79
69402;BME280;56589;51.992;5.924;2022-08-19T03:51:18;100826.38;;;17.23;72.42
69402;BME280;56589;51.992;5.924;2022-08-19T03:53:46;100822.84;;;17.22;72.46
69402;BME280;56589;51.992;5.924;2022-08-19T03:56:13;100831.25;;;17.18;73.03
69402;BME280;56589;51.992;5.924;2022-08-19T03:58:42;100834.88;;;17.17;72.67
69402;BME280;56589;51.992;5.924;2022-08-19T04:01:10;100833.19;;;17.16;73.19
69402;BME280;56589;51.992;5.924;2022-08-19T04:03:38;100826.34;;;17.13;73.14
69402;BME280;56589;51.992;5.924;2022-08-19T04:06:10;100829.16;;;17.12;73.29
69402;BME280;56589;51.992;5.924;2022-08-19T04:08:37;100830.13;;;17.11;73.08
69402;BME280;56589;51.992;5.924;2022-08-19T04:11:06;100835.44;;;17.11;72.75
69402;BME280;56589;51.992;5.924;2022-08-19T04:13:33;100823.97;;;17.10;73.24
69402;BME280;56589;51.992;5.924;2022-08-19T04:16:02;100812.81;;;17.07;73.33
69402;BME280;56589;51.992;5.924;2022-08-19T04:18:28;100823.56;;;17.05;73.24
69402;BME280;56589;51.992;5.924;2022-08-19T04:20:54;100829.00;;;17.04;73.11
69402;BME280;56589;51.992;5.924;2022-08-19T04:23:19;100827.31;;;17.03;73.52
69402;BME280;56589;51.992;5.924;2022-08-19T04:25:45;100821.19;;;17.02;73.42
69402;BME280;56589;51.992;5.924;2022-08-19T04:28:12;100810.03;;;16.98;73.30
69402;BME280;56589;51.992;5.924;2022-08-19T04:30:40;100810.16;;;16.97;73.40
69402;BME280;56589;51.992;5.924;2022-08-19T04:33:11;100806.13;;;16.93;73.80
69402;BME280;56589;51.992;5.924;2022-08-19T04:35:40;100807.50;;;16.87;73.48
69402;BME280;56589;51.992;5.924;2022-08-19T04:38:07;100803.28;;;16.85;73.73
69402;BME280;56589;51.992;5.924;2022-08-19T04:40:34;100805.94;;;16.85;73.79
69402;BME280;56589;51.992;5.924;2022-08-19T04:43:05;100799.66;;;16.86;73.63
69402;BME280;56589;51.992;5.924;2022-08-19T04:45:30;100800.66;;;16.85;73.83
69402;BME280;56589;51.992;5.924;2022-08-19T04:47:56;100795.34;;;16.85;73.83
69402;BME280;56589;51.992;5.924;2022-08-19T04:50:25;100799.66;;;16.86;74.06
69402;BME280;56589;51.992;5.924;2022-08-19T04:52:51;100804.28;;;16.84;74.11
69402;BME280;56589;51.992;5.924;2022-08-19T04:55:17;100798.81;;;16.85;73.89
69402;BME280;56589;51.992;5.924;2022-08-19T04:57:43;100801.47;;;16.85;74.23
69402;BME280;56589;51.992;5.924;2022-08-19T05:00:10;100806.66;;;16.87;74.00
69402;BME280;56589;51.992;5.924;2022-08-19T05:02:37;100808.88;;;16.91;74.01
69402;BME280;56589;51.992;5.924;2022-08-19T05:05:04;100812.78;;;16.97;74.25
69402;BME280;56589;51.992;5.924;2022-08-19T05:07:33;100803.44;;;17.03;74.44
69402;BME280;56589;51.992;5.924;2022-08-19T05:09:59;100813.66;;;17.07;74.22
69402;BME280;56589;51.992;5.924;2022-08-19T05:12:25;100808.06;;;17.10;74.28
69402;BME280;56589;51.992;5.924;2022-08-19T05:14:51;100808.47;;;17.15;74.61
69402;BME280;56589;51.992;5.924;2022-08-19T05:17:17;100823.00;;;17.21;74.46
69402;BME280;56589;51.992;5.924;2022-08-19T05:19:43;100815.59;;;17.24;74.61
69402;BME280;56589;51.992;5.924;2022-08-19T05:22:09;100818.38;;;17.33;74.84
69402;BME280;56589;51.992;5.924;2022-08-19T05:24:37;100819.50;;;17.40;74.97
69402;BME280;56589;51.992;5.924;2022-08-19T05:27:03;100830.25;;;17.48;74.72
69402;BME280;56589;51.992;5.924;2022-08-19T05:29:30;100822.25;;;17.58;74.41
69402;BME280;56589;51.992;5.924;2022-08-19T05:31:56;100824.09;;;17.67;74.93
69402;BME280;56589;51.992;5.924;2022-08-19T05:34:24;100821.41;;;17.76;74.89
69402;BME280;56589;51.992;5.924;2022-08-19T05:36:52;100830.19;;;17.87;74.55
69402;BME280;56589;51.992;5.924;2022-08-19T05:39:20;100813.25;;;17.97;74.61
69402;BME280;56589;51.992;5.924;2022-08-19T05:41:51;100826.88;;;18.12;74.54
69402;BME280;56589;51.992;5.924;2022-08-19T05:44:19;100822.06;;;18.25;74.44
69402;BME280;56589;51.992;5.924;2022-08-19T05:46:46;100828.66;;;18.49;75.06
69402;BME280;56589;51.992;5.924;2022-08-19T05:49:13;100828.16;;;18.91;75.35
69402;BME280;56589;51.992;5.924;2022-08-19T05:51:39;100832.19;;;19.48;75.26
69402;BME280;56589;51.992;5.924;2022-08-19T05:54:05;100841.59;;;20.12;74.34
69402;BME280;56589;51.992;5.924;2022-08-19T05:56:31;100838.50;;;20.76;72.78
69402;BME280;56589;51.992;5.924;2022-08-19T05:59:00;100833.78;;;21.36;71.88
69402;BME280;56589;51.992;5.924;2022-08-19T06:01:26;100834.22;;;21.97;70.94
69402;BME280;56589;51.992;5.924;2022-08-19T06:03:52;100839.34;;;22.54;69.26
69402;BME280;56589;51.992;5.924;2022-08-19T06:06:19;100841.56;;;23.04;68.51
69402;BME280;56589;51.992;5.924;2022-08-19T06:08:46;100839.38;;;23.54;66.79
69402;BME280;56589;51.992;5.924;2022-08-19T06:11:15;100853.31;;;24.02;65.06
69402;BME280;56589;51.992;5.924;2022-08-19T06:13:44;100845.84;;;24.41;63.21
69402;BME280;56589;51.992;5.924;2022-08-19T06:16:14;100851.94;;;24.71;61.83
69402;BME280;56589;51.992;5.924;2022-08-19T06:18:39;100851.00;;;24.94;60.93
69402;BME280;56589;51.992;5.924;2022-08-19T06:21:05;100853.03;;;25.13;60.27
69402;BME280;56589;51.992;5.924;2022-08-19T06:23:31;100855.28;;;25.31;59.51
69402;BME280;56589;51.992;5.924;2022-08-19T06:25:56;100853.81;;;25.50;58.95
69402;BME280;56589;51.992;5.924;2022-08-19T06:28:22;100857.06;;;25.67;58.70
69402;BME280;56589;51.992;5.924;2022-08-19T06:30:48;100854.97;;;25.90;58.27
69402;BME280;56589;51.992;5.924;2022-08-19T06:33:16;100862.19;;;26.18;57.10
69402;BME280;56589;51.992;5.924;2022-08-19T06:35:42;100856.09;;;26.44;56.44
69402;BME280;56589;51.992;5.924;2022-08-19T06:38:08;100859.28;;;26.67;55.88
69402;BME280;56589;51.992;5.924;2022-08-19T06:40:34;100863.94;;;26.87;55.02
69402;BME280;56589;51.992;5.924;2022-08-19T06:43:00;100871.03;;;27.01;54.70
69402;BME280;56589;51.992;5.924;2022-08-19T06:45:26;100864.00;;;27.20;53.75
69402;BME280;56589;51.992;5.924;2022-08-19T06:47:52;100859.69;;;27.32;53.27
69402;BME280;56589;51.992;5.924;2022-08-19T06:50:20;100860.72;;;27.31;52.04
69402;BME280;56589;51.992;5.924;2022-08-19T06:52:47;100855.47;;;26.96;52.10
69402;BME280;56589;51.992;5.924;2022-08-19T06:55:12;100860.41;;;26.31;52.70
69402;BME280;56589;51.992;5.924;2022-08-19T06:57:39;100855.59;;;25.64;53.63
69402;BME280;56589;51.992;5.924;2022-08-19T07:00:06;100852.84;;;25.15;54.32
69402;BME280;56589;51.992;5.924;2022-08-19T07:02:33;100857.19;;;24.73;55.14
69402;BME280;56589;51.992;5.924;2022-08-19T07:04:59;100851.00;;;24.28;55.75
69402;BME280;56589;51.992;5.924;2022-08-19T07:07:27;100853.22;;;23.95;56.58
69402;BME280;56589;51.992;5.924;2022-08-19T07:09:53;100849.94;;;23.70;57.13
69402;BME280;56589;51.992;5.924;2022-08-19T07:12:19;100849.34;;;23.45;58.07
69402;BME280;56589;51.992;5.924;2022-08-19T07:14:44;100864.34;;;23.31;58.61
69402;BME280;56589;51.992;5.924;2022-08-19T07:17:11;100879.88;;;23.13;58.92
69402;BME280;56589;51.992;5.924;2022-08-19T07:19:38;100877.56;;;22.79;59.24
69402;BME280;56589;51.992;5.924;2022-08-19T07:22:06;100871.00;;;22.42;59.74
69402;BME280;56589;51.992;5.924;2022-08-19T07:24:36;100863.91;;;22.18;60.37
69402;BME280;56589;51.992;5.924;2022-08-19T07:27:04;100863.59;;;22.05;60.60
69402;BME280;56589;51.992;5.924;2022-08-19T07:29:33;100866.31;;;21.97;61.50
69402;BME280;56589;51.992;5.924;2022-08-19T07:32:02;100872.81;;;21.94;61.37
69402;BME280;56589;51.992;5.924;2022-08-19T07:34:29;100877.50;;;21.92;61.60
69402;BME280;56589;51.992;5.924;2022-08-19T07:36:56;100877.50;;;21.92;61.36
69402;BME280;56589;51.992;5.924;2022-08-19T07:39:25;100879.16;;;21.93;61.50
69402;BME280;56589;51.992;5.924;2022-08-19T07:41:56;100881.66;;;22.03;61.98
69402;BME280;56589;51.992;5.924;2022-08-19T07:44:24;100882.97;;;22.07;61.49
69402;BME280;56589;51.992;5.924;2022-08-19T07:46:52;100883.50;;;22.11;61.50
69402;BME280;56589;51.992;5.924;2022-08-19T07:49:20;100885.81;;;22.22;61.35
69402;BME280;56589;51.992;5.924;2022-08-19T07:51:49;100884.91;;;22.38;61.68
69402;BME280;56589;51.992;5.924;2022-08-19T07:54:17;100888.72;;;22.51;61.25
69402;BME280;56589;51.992;5.924;2022-08-19T07:56:45;100899.03;;;22.71;60.71
69402;BME280;56589;51.992;5.924;2022-08-19T07:59:13;100903.00;;;22.75;60.15
69402;BME280;56589;51.992;5.924;2022-08-19T08:01:39;100909.41;;;22.66;60.13
69402;BME280;56589;51.992;5.924;2022-08-19T08:04:06;100911.59;;;22.62;60.69
69402;BME280;56589;51.992;5.924;2022-08-19T08:06:32;100900.75;;;22.64;60.25
69402;BME280;56589;51.992;5.924;2022-08-19T08:08:58;100898.72;;;22.57;60.05
69402;BME280;56589;51.992;5.924;2022-08-19T08:11:24;100900.06;;;22.53;60.60
69402;BME280;56589;51.992;5.924;2022-08-19T08:13:50;100895.69;;;22.60;60.58
69402;BME280;56589;51.992;5.924;2022-08-19T08:16:18;100901.34;;;22.74;60.26
69402;BME280;56589;51.992;5.924;2022-08-19T08:18:44;100905.78;;;22.90;60.24
69402;BME280;56589;51.992;5.924;2022-08-19T08:21:10;100903.66;;;23.08;59.98
69402;BME280;56589;51.992;5.924;2022-08-19T08:23:35;100911.31;;;23.19;59.46
69402;BME280;56589;51.992;5.924;2022-08-19T08:26:01;100909.88;;;23.31;59.21
69402;BME280;56589;51.992;5.924;2022-08-19T08:28:27;100910.03;;;23.38;58.54
69402;BME280;56589;51.992;5.924;2022-08-19T08:30:53;100917.50;;;23.43;58.71
69402;BME280;56589;51.992;5.924;2022-08-19T08:33:23;100925.41;;;23.44;58.20
69402;BME280;56589;51.992;5.924;2022-08-19T08:35:50;100922.72;;;23.44;58.51
69402;BME280;56589;51.992;5.924;2022-08-19T08:38:16;100922.63;;;23.52;58.20
69402;BME280;56589;51.992;5.924;2022-08-19T08:40:45;100926.56;;;23.64;58.23
69402;BME280;56589;51.992;5.924;2022-08-19T08:43:22;100923.38;;;23.84;57.53
69402;BME280;56589;51.992;5.924;2022-08-19T08:45:55;100928.91;;;24.05;56.96
69402;BME280;56589;51.992;5.924;2022-08-19T08:48:36;100922.28;;;24.31;55.93
69402;BME280;56589;51.992;5.924;2022-08-19T08:51:09;100916.25;;;24.43;55.55
69402;BME280;56589;51.992;5.924;2022-08-19T08:53:40;100917.06;;;24.59;54.90
69402;BME280;56589;51.992;5.924;2022-08-19T08:56:09;100921.97;;;24.70;54.75
69402;BME280;56589;51.992;5.924;2022-08-19T08:58:42;100926.25;;;24.79;54.48
69402;BME280;56589;51.992;5.924;2022-08-19T09:01:15;100927.59;;;24.90;53.76
69402;BME280;56589;51.992;5.924;2022-08-19T09:03:44;100923.31;;;24.95;53.46
69402;BME280;56589;51.992;5.924;2022-08-19T09:06:14;100919.25;;;24.99;53.18
69402;BME280;56589;51.992;5.924;2022-08-19T09:08:50;100926.81;;;25.11;52.54
69402;BME280;56589;51.992;5.924;2022-08-19T09:11:36;100924.13;;;25.32;52.30
69402;BME280;56589;51.992;5.924;2022-08-19T09:14:20;100918.50;;;25.42;52.30
69402;BME280;56589;51.992;5.924;2022-08-19T09:16:59;100915.66;;;25.50;52.20
69402;BME280;56589;51.992;5.924;2022-08-19T09:19:28;100919.91;;;25.59;51.59
69402;BME280;56589;51.992;5.924;2022-08-19T09:21:55;100922.19;;;25.62;50.84
69402;BME280;56589;51.992;5.924;2022-08-19T09:24:21;100914.00;;;25.49;50.95
69402;BME280;56589;51.992;5.924;2022-08-19T09:26:47;100909.66;;;25.48;51.20
69402;BME280;56589;51.992;5.924;2022-08-19T09:29:13;100914.00;;;25.49;51.47
69402;BME280;56589;51.992;5.924;2022-08-19T09:31:39;100923.34;;;25.53;51.47
69402;BME280;56589;51.992;5.924;2022-08-19T09:34:05;100923.47;;;25.45;51.54
69402;BME280;56589;51.992;5.924;2022-08-19T09:36:33;100920.16;;;25.43;52.52
69402;BME280;56589;51.992;5.924;2022-08-19T09:38:59;100927.28;;;25.78;52.51
69402;BME280;56589;51.992;5.924;2022-08-19T09:41:26;100924.91;;;26.18;51.20
69402;BME280;56589;51.992;5.924;2022-08-19T09:43:54;100922.09;;;26.26;50.55
69402;BME280;56589;51.992;5.924;2022-08-19T09:46:21;100928.84;;;26.16;50.56
69402;BME280;56589;51.992;5.924;2022-08-19T09:48:49;100928.28;;;25.99;50.80
69402;BME280;56589;51.992;5.924;2022-08-19T09:51:17;100938.66;;;26.02;51.41
69402;BME280;56589;51.992;5.924;2022-08-19T09:53:48;100931.38;;;26.24;51.08
69402;BME280;56589;51.992;5.924;2022-08-19T09:56:14;100944.56;;;26.47;51.17
69402;BME280;56589;51.992;5.924;2022-08-19T09:58:41;100940.72;;;26.63;49.72
69402;BME280;56589;51.992;5.924;2022-08-19T10:01:07;100938.69;;;26.71;49.65
69402;BME280;56589;51.992;5.924;2022-08-19T10:03:34;100942.13;;;26.93;49.64
69402;BME280;56589;51.992;5.924;2022-08-19T10:06:04;100945.09;;;27.11;49.30
69402;BME280;56589;51.992;5.924;2022-08-19T10:08:32;100943.91;;;27.41;48.49
69402;BME280;56589;51.992;5.924;2022-08-19T10:11:04;100950.56;;;27.78;47.38
69402;BME280;56589;51.992;5.924;2022-08-19T10:13:31;100954.78;;;28.00;46.92
69402;BME280;56589;51.992;5.924;2022-08-19T10:16:03;100941.47;;;28.05;46.18
69402;BME280;56589;51.992;5.924;2022-08-19T10:18:30;100942.91;;;28.14;46.43
69402;BME280;56589;51.992;5.924;2022-08-19T10:21:04;100946.84;;;28.25;45.34
69402;BME280;56589;51.992;5.924;2022-08-19T10:23:32;100944.97;;;28.19;46.00
69402;BME280;56589;51.992;5.924;2022-08-19T10:26:02;100949.38;;;28.00;44.62
69402;BME280;56589;51.992;5.924;2022-08-19T10:28:28;100945.63;;;27.68;45.10
69402;BME280;56589;51.992;5.924;2022-08-19T10:30:54;100942.47;;;27.51;45.85
69402;BME280;56589;51.992;5.924;2022-08-19T10:33:20;100944.13;;;27.46;45.96
69402;BME280;56589;51.992;5.924;2022-08-19T10:35:45;100948.47;;;27.40;45.24
69402;BME280;56589;51.992;5.924;2022-08-19T10:38:11;100943.47;;;27.30;45.35
69402;BME280;56589;51.992;5.924;2022-08-19T10:40:37;100951.72;;;27.22;45.38
69402;BME280;56589;51.992;5.924;2022-08-19T10:43:05;100934.91;;;27.14;45.87
69402;BME280;56589;51.992;5.924;2022-08-19T10:45:31;100934.06;;;27.06;46.13
69402;BME280;56589;51.992;5.924;2022-08-19T10:47:57;100931.56;;;27.05;46.26
69402;BME280;56589;51.992;5.924;2022-08-19T10:50:22;100931.97;;;27.02;45.96
69402;BME280;56589;51.992;5.924;2022-08-19T10:52:49;100936.31;;;26.96;46.30
69402;BME280;56589;51.992;5.924;2022-08-19T10:55:16;100936.94;;;26.98;46.32
69402;BME280;56589;51.992;5.924;2022-08-19T10:57:44;100933.38;;;26.91;45.82
69402;BME280;56589;51.992;5.924;2022-08-19T11:00:13;100932.16;;;26.87;45.99
69402;BME280;56589;51.992;5.924;2022-08-19T11:02:39;100925.50;;;26.90;45.92
69402;BME280;56589;51.992;5.924;2022-08-19T11:05:07;100930.91;;;26.96;45.63
69402;BME280;56589;51.992;5.924;2022-08-19T11:07:33;100927.97;;;26.84;45.76
69402;BME280;56589;51.992;5.924;2022-08-19T11:09:59;100932.06;;;26.74;46.04
69402;BME280;56589;51.992;5.924;2022-08-19T11:12:24;100928.78;;;26.78;46.39
69402;BME280;56589;51.992;5.924;2022-08-19T11:14:50;100927.16;;;26.91;46.26
69402;BME280;56589;51.992;5.924;2022-08-19T11:17:19;100929.28;;;27.02;46.04
69402;BME280;56589;51.992;5.924;2022-08-19T11:19:44;100924.13;;;27.07;45.65
69402;BME280;56589;51.992;5.924;2022-08-19T11:22:10;100919.78;;;27.13;45.15
69402;BME280;56589;51.992;5.924;2022-08-19T11:24:36;100925.56;;;27.09;45.26
69402;BME280;56589;51.992;5.924;2022-08-19T11:27:04;100926.81;;;27.07;45.17
69402;BME280;56589;51.992;5.924;2022-08-19T11:29:32;100925.94;;;26.93;45.35
69402;BME280;56589;51.992;5.924;2022-08-19T11:31:58;100918.88;;;26.99;45.78
69402;BME280;56589;51.992;5.924;2022-08-19T11:34:27;100923.72;;;27.17;45.32
69402;BME280;56589;51.992;5.924;2022-08-19T11:36:53;100929.34;;;27.28;45.03
69402;BME280;56589;51.992;5.924;2022-08-19T11:39:21;100922.91;;;27.29;44.48
69402;BME280;56589;51.992;5.924;2022-08-19T11:41:48;100920.69;;;27.33;44.35
69402;BME280;56589;51.992;5.924;2022-08-19T11:44:13;100915.91;;;27.35;44.58
69402;BME280;56589;51.992;5.924;2022-08-19T11:46:42;100921.72;;;27.38;44.23
69402;BME280;56589;51.992;5.924;2022-08-19T11:49:09;100910.31;;;27.36;44.29
69402;BME280;56589;51.992;5.924;2022-08-19T11:51:37;100914.47;;;27.39;44.53
69402;BME280;56589;51.992;5.924;2022-08-19T11:54:05;100914.25;;;27.41;44.59
69402;BME280;56589;51.992;5.924;2022-08-19T11:56:31;100909.69;;;27.48;44.38
69402;BME280;56589;51.992;5.924;2022-08-19T11:58:57;100916.13;;;27.53;44.22
69402;BME280;56589;51.992;5.924;2022-08-19T12:01:25;100919.84;;;27.52;44.11
69402;BME280;56589;51.992;5.924;2022-08-19T12:03:53;100916.56;;;27.57;44.01
69402;BME280;56589;51.992;5.924;2022-08-19T12:06:22;100916.16;;;27.67;43.90
69402;BME280;56589;51.992;5.924;2022-08-19T12:08:52;100911.78;;;27.65;43.20
69402;BME280;56589;51.992;5.924;2022-08-19T12:11:18;100910.75;;;27.67;43.68
69402;BME280;56589;51.992;5.924;2022-08-19T12:13:45;100912.41;;;27.74;43.61
69402;BME280;56589;51.992;5.924;2022-08-19T12:16:12;100903.47;;;27.80;42.92
69402;BME280;56589;51.992;5.924;2022-08-19T12:18:40;100898.91;;;27.87;43.42
69402;BME280;56589;51.992;5.924;2022-08-19T12:21:07;100906.56;;;27.90;43.41
69402;BME280;56589;51.992;5.924;2022-08-19T12:23:33;100899.97;;;27.93;43.73
69402;BME280;56589;51.992;5.924;2022-08-19T12:26:01;100902.66;;;28.00;43.78
69402;BME280;56589;51.992;5.924;2022-08-19T12:28:27;100902.66;;;28.00;43.55
69402;BME280;56589;51.992;5.924;2022-08-19T12:30:53;100897.88;;;28.02;43.58
69402;BME280;56589;51.992;5.924;2022-08-19T12:33:19;100894.97;;;28.10;43.71
69402;BME280;56589;51.992;5.924;2022-08-19T12:35:45;100902.22;;;28.16;43.29
69402;BME280;56589;51.992;5.924;2022-08-19T12:38:11;100895.78;;;28.10;43.75
69402;BME280;56589;51.992;5.924;2022-08-19T12:40:38;100888.53;;;28.11;43.68
69402;BME280;56589;51.992;5.924;2022-08-19T12:43:07;100891.81;;;28.13;43.40
69402;BME280;56589;51.992;5.924;2022-08-19T12:45:33;100896.81;;;28.09;43.97
69402;BME280;56589;51.992;5.924;2022-08-19T12:47:59;100893.50;;;28.07;43.71
69402;BME280;56589;51.992;5.924;2022-08-19T12:50:25;100901.19;;;28.10;44.04
69402;BME280;56589;51.992;5.924;2022-08-19T12:52:51;100895.78;;;28.17;43.95